Seaspan Champion — VDPS — position and weather

sailwx.info

Track history (hours):
 
Tides and Currents Weather Stations Pressure Air Temp Water Temp Dewpoint Dewpoint Depression Visibility Wind Speed Wind Dir Waves Ship Positions

Seaspan Champion

Last reported at 2016-Sep-27 00:34 UTC. Time now 2016-Sep-27 08:46 UTC.
Position N 49°15' W 123°18'.

Length 24 m; draft 5 m.

Type: Towing. MMSI: 316003661.

Date/timePositionNaut miles runAvg speedWind from/ knotsBaromVisibWave heightAir tempDewpointWater temp
2016-Sep-27 00:34N 49°15' W 123°18'12 3.1
2016-Sep-26 20:33N 49°09' W 123°01'4 3.8
2016-Sep-26 19:33N 49°10' W 122°55'11 2.7
2016-Sep-26 15:33N 49°07' W 123°11'0 0.0
2016-Sep-26 13:33N 49°07' W 123°11'0 0.0
2016-Sep-26 11:33N 49°07' W 123°11'4 1.5
2016-Sep-26 08:33N 49°07' W 123°05'23 3.9
2016-Sep-26 02:33N 49°20' W 123°35'8 7.7
2016-Sep-26 01:33N 49°23' W 123°46'8 7.8
2016-Sep-26 00:33N 49°26' W 123°56'23 7.6
2016-Sep-25 21:33N 49°43' W 124°21'8 1.9
2016-Sep-25 17:33N 49°47' W 124°30'5 5.4
2016-Sep-25 16:33N 49°45' W 124°23'5 5.1
2016-Sep-25 15:33N 49°41' W 124°17'5 4.9
2016-Sep-25 14:33N 49°38' W 124°12'10 4.8
2016-Sep-25 12:33N 49°30' W 124°03'4 4.5
2016-Sep-25 11:33N 49°27' W 123°58'5 4.7
2016-Sep-25 10:33N 49°25' W 123°52'5 5.0
2016-Sep-25 09:33N 49°24' W 123°44'10 4.8
2016-Sep-25 07:33N 49°20' W 123°31'11 3.7
2016-Sep-25 04:33N 49°12' W 123°18'14 3.5
2016-Sep-25 00:33N 49°09' W 122°57'3 1.6
2016-Sep-24 22:33N 49°12' W 122°55'0 0.0
2016-Sep-24 21:33N 49°12' W 122°55'0 0.0
2016-Sep-24 19:33N 49°12' W 122°55'0 0.0
2016-Sep-24 18:33N 49°12' W 122°55'0 0.0
2016-Sep-24 17:33N 49°12' W 122°55'0 0.0
2016-Sep-24 16:33N 49°12' W 122°55'0 0.0
2016-Sep-24 14:33N 49°12' W 122°55'0 0.0
2016-Sep-24 12:33N 49°12' W 122°55'0 0.0
2016-Sep-24 10:33N 49°12' W 122°55'3 3.5
2016-Sep-24 09:33N 49°10' W 122°58'20 3.3
2016-Sep-24 03:33N 49°18' W 123°26'7 7.5
2016-Sep-24 02:33N 49°21' W 123°36'7 7.3
2016-Sep-24 01:33N 49°24' W 123°47'6 6.4
2016-Sep-24 00:33N 49°26' W 123°56'28 5.7
2016-Sep-23 19:33N 49°45' W 124°28'8 3.9
2016-Sep-23 17:31N 49°52' W 124°34'1 1.4
2016-Sep-23 16:33N 49°51' W 124°33'5 5.2
2016-Sep-23 15:33N 49°47' W 124°29'11 5.6
2016-Sep-23 13:33N 49°40' W 124°15'22 5.4
2016-Sep-23 09:33N 49°25' W 123°51'16 5.3
2016-Sep-23 06:33N 49°19' W 123°28'8 3.8
2016-Sep-23 04:33N 49°15' W 123°18'1 1.2
2016-Sep-23 03:33N 49°14' W 123°18'4 3.8
2016-Sep-23 02:33N 49°10' W 123°19'4 3.8
2016-Sep-23 01:33N 49°06' W 123°18'6 5.9
2016-Sep-23 00:33N 49°07' W 123°09'7 6.7
2016-Sep-22 23:33N 49°09' W 122°60'2 0.6
2016-Sep-22 20:33N 49°10' W 122°57'10 1.2
2016-Sep-22 12:33N 49°07' W 123°11'31 3.8
2016-Sep-22 04:33N 49°24' W 123°51'6 5.8
2016-Sep-22 03:33N 49°26' W 123°59'18 5.9
2016-Sep-22 00:33N 49°40' W 124°17'6 5.7
2016-Sep-21 23:33N 49°44' W 124°23'6 5.6
2016-Sep-21 22:33N 49°47' W 124°30'3 1.0
2016-Sep-21 19:32N 49°50' W 124°32'13 4.5
2016-Sep-21 16:33N 49°41' W 124°17'30 4.3
2016-Sep-21 09:33N 49°22' W 123°40'4 4.4
2016-Sep-21 08:33N 49°21' W 123°33'10 3.4
2016-Sep-21 05:33N 49°17' W 123°19'10 4.8
2016-Sep-21 03:33N 49°07' W 123°19'3 2.6
2016-Sep-21 02:33N 49°07' W 123°16'13 0.4
2016-Sep-19 14:34N 49°10' W 122°55'2 1.5
2016-Sep-19 13:34N 49°09' W 122°57'2 2.0
2016-Sep-19 12:33N 49°09' W 123°00'3 3.2
2016-Sep-19 11:33N 49°07' W 123°04'7 3.7
2016-Sep-19 09:33N 49°07' W 123°16'6 3.0
2016-Sep-19 07:33N 49°11' W 123°22'7 6.6
2016-Sep-19 06:33N 49°18' W 123°26'14 4.6
2016-Sep-19 03:33N 49°23' W 123°45'5 5.3
2016-Sep-19 02:33N 49°25' W 123°53'9 4.5
2016-Sep-19 00:32N 49°31' W 124°04'25 5.0
2016-Sep-18 19:33N 49°48' W 124°32'4 1.0
2016-Sep-18 15:33N 49°46' W 124°26'5 4.9
2016-Sep-18 14:33N 49°43' W 124°20'22 5.5
2016-Sep-18 10:33N 49°27' W 123°58'6 5.6
2016-Sep-18 09:31N 49°24' W 123°50'28 4.0
2016-Sep-18 02:33N 49°07' W 123°16'4 4.3
2016-Sep-18 01:33N 49°07' W 123°10'4 4.0
2016-Sep-18 00:33N 49°08' W 123°04'4 2.0
2016-Sep-17 22:33N 49°09' W 122°58'6 5.8
2016-Sep-17 21:33N 49°07' W 123°06'4 4.3
2016-Sep-17 20:33N 49°08' W 123°13'5 3.6
2016-Sep-17 19:16N 49°06' W 123°19'18 3.2
2016-Sep-17 13:33N 48°52' W 123°39'2 2.0
2016-Sep-17 12:33N 48°54' W 123°37'1 0.3
2016-Sep-17 10:32N 48°54' W 123°36'2 1.7
2016-Sep-17 09:33N 48°52' W 123°35'3 2.7
2016-Sep-17 08:33N 48°55' W 123°36'3 2.6
2016-Sep-17 07:32N 48°57' W 123°37'13 6.3
2016-Sep-17 05:33N 49°06' W 123°23'8 7.7
2016-Sep-17 04:33N 49°07' W 123°11'  
Track history (hours):
 
Tides and Currents Weather Stations Pressure Air Temp Water Temp Dewpoint Dewpoint Depression Visibility Wind Speed Wind Dir Waves Ship Positions

Seaspan Champion

Last reported at 2016-Sep-27 00:34 UTC. Time now 2016-Sep-27 08:46 UTC.
Position N 49°15' W 123°18'.

Length 24 m; draft 5 m.

Type: Towing. MMSI: 316003661.

Date/timePositionNaut miles runAvg speedWind from/ knotsBaromVisibWave heightAir tempDewpointWater temp
2016-Sep-27 00:34N 49°15' W 123°18'12 3.1
2016-Sep-26 20:33N 49°09' W 123°01'4 3.8
2016-Sep-26 19:33N 49°10' W 122°55'11 2.7
2016-Sep-26 15:33N 49°07' W 123°11'0 0.0
2016-Sep-26 13:33N 49°07' W 123°11'0 0.0
2016-Sep-26 11:33N 49°07' W 123°11'4 1.5
2016-Sep-26 08:33N 49°07' W 123°05'23 3.9
2016-Sep-26 02:33N 49°20' W 123°35'8 7.7
2016-Sep-26 01:33N 49°23' W 123°46'8 7.8
2016-Sep-26 00:33N 49°26' W 123°56'23 7.6
2016-Sep-25 21:33N 49°43' W 124°21'8 1.9
2016-Sep-25 17:33N 49°47' W 124°30'5 5.4
2016-Sep-25 16:33N 49°45' W 124°23'5 5.1
2016-Sep-25 15:33N 49°41' W 124°17'5 4.9
2016-Sep-25 14:33N 49°38' W 124°12'10 4.8
2016-Sep-25 12:33N 49°30' W 124°03'4 4.5
2016-Sep-25 11:33N 49°27' W 123°58'5 4.7
2016-Sep-25 10:33N 49°25' W 123°52'5 5.0
2016-Sep-25 09:33N 49°24' W 123°44'10 4.8
2016-Sep-25 07:33N 49°20' W 123°31'11 3.7
2016-Sep-25 04:33N 49°12' W 123°18'14 3.5
2016-Sep-25 00:33N 49°09' W 122°57'3 1.6
2016-Sep-24 22:33N 49°12' W 122°55'0 0.0
2016-Sep-24 21:33N 49°12' W 122°55'0 0.0
2016-Sep-24 19:33N 49°12' W 122°55'0 0.0
2016-Sep-24 18:33N 49°12' W 122°55'0 0.0
2016-Sep-24 17:33N 49°12' W 122°55'0 0.0
2016-Sep-24 16:33N 49°12' W 122°55'0 0.0
2016-Sep-24 14:33N 49°12' W 122°55'0 0.0
2016-Sep-24 12:33N 49°12' W 122°55'0 0.0
2016-Sep-24 10:33N 49°12' W 122°55'3 3.5
2016-Sep-24 09:33N 49°10' W 122°58'20 3.3
2016-Sep-24 03:33N 49°18' W 123°26'7 7.5
2016-Sep-24 02:33N 49°21' W 123°36'7 7.3
2016-Sep-24 01:33N 49°24' W 123°47'6 6.4
2016-Sep-24 00:33N 49°26' W 123°56'28 5.7
2016-Sep-23 19:33N 49°45' W 124°28'8 3.9
2016-Sep-23 17:31N 49°52' W 124°34'1 1.4
2016-Sep-23 16:33N 49°51' W 124°33'5 5.2
2016-Sep-23 15:33N 49°47' W 124°29'11 5.6
2016-Sep-23 13:33N 49°40' W 124°15'22 5.4
2016-Sep-23 09:33N 49°25' W 123°51'16 5.3
2016-Sep-23 06:33N 49°19' W 123°28'8 3.8
2016-Sep-23 04:33N 49°15' W 123°18'1 1.2
2016-Sep-23 03:33N 49°14' W 123°18'4 3.8
2016-Sep-23 02:33N 49°10' W 123°19'4 3.8
2016-Sep-23 01:33N 49°06' W 123°18'6 5.9
2016-Sep-23 00:33N 49°07' W 123°09'7 6.7
2016-Sep-22 23:33N 49°09' W 122°60'2 0.6
2016-Sep-22 20:33N 49°10' W 122°57'10 1.2
2016-Sep-22 12:33N 49°07' W 123°11'31 3.8
2016-Sep-22 04:33N 49°24' W 123°51'6 5.8
2016-Sep-22 03:33N 49°26' W 123°59'18 5.9
2016-Sep-22 00:33N 49°40' W 124°17'6 5.7
2016-Sep-21 23:33N 49°44' W 124°23'6 5.6
2016-Sep-21 22:33N 49°47' W 124°30'3 1.0
2016-Sep-21 19:32N 49°50' W 124°32'13 4.5
2016-Sep-21 16:33N 49°41' W 124°17'30 4.3
2016-Sep-21 09:33N 49°22' W 123°40'4 4.4
2016-Sep-21 08:33N 49°21' W 123°33'10 3.4
2016-Sep-21 05:33N 49°17' W 123°19'10 4.8
2016-Sep-21 03:33N 49°07' W 123°19'3 2.6
2016-Sep-21 02:33N 49°07' W 123°16'13 0.4
2016-Sep-19 14:34N 49°10' W 122°55'2 1.5
2016-Sep-19 13:34N 49°09' W 122°57'2 2.0
2016-Sep-19 12:33N 49°09' W 123°00'3 3.2
2016-Sep-19 11:33N 49°07' W 123°04'7 3.7
2016-Sep-19 09:33N 49°07' W 123°16'6 3.0
2016-Sep-19 07:33N 49°11' W 123°22'7 6.6
2016-Sep-19 06:33N 49°18' W 123°26'14 4.6
2016-Sep-19 03:33N 49°23' W 123°45'5 5.3
2016-Sep-19 02:33N 49°25' W 123°53'9 4.5
2016-Sep-19 00:32N 49°31' W 124°04'25 5.0
2016-Sep-18 19:33N 49°48' W 124°32'4 1.0
2016-Sep-18 15:33N 49°46' W 124°26'5 4.9
2016-Sep-18 14:33N 49°43' W 124°20'22 5.5
2016-Sep-18 10:33N 49°27' W 123°58'6 5.6
2016-Sep-18 09:31N 49°24' W 123°50'28 4.0
2016-Sep-18 02:33N 49°07' W 123°16'4 4.3
2016-Sep-18 01:33N 49°07' W 123°10'4 4.0
2016-Sep-18 00:33N 49°08' W 123°04'4 2.0
2016-Sep-17 22:33N 49°09' W 122°58'6 5.8
2016-Sep-17 21:33N 49°07' W 123°06'4 4.3
2016-Sep-17 20:33N 49°08' W 123°13'5 3.6
2016-Sep-17 19:16N 49°06' W 123°19'18 3.2
2016-Sep-17 13:33N 48°52' W 123°39'2 2.0
2016-Sep-17 12:33N 48°54' W 123°37'1 0.3
2016-Sep-17 10:32N 48°54' W 123°36'2 1.7
2016-Sep-17 09:33N 48°52' W 123°35'3 2.7
2016-Sep-17 08:33N 48°55' W 123°36'3 2.6
2016-Sep-17 07:32N 48°57' W 123°37'13 6.3
2016-Sep-17 05:33N 49°06' W 123°23'8 7.7
2016-Sep-17 04:33N 49°07' W 123°11'  

Dump ship's entire track history